Time;durP1;ratioP1;P1;durP2;ratioP2;P2;SDS_P1;SDS_P2;PMS_P1;PMS_P2;Temp;Humidity;BMP_temperature;BMP_pressure;BME280_temperature;BME280_humidity;BME280_pressure;Samples;Min_cycle;Max_cycle;Signal;HPM_P1;HPM_P2
2022/09/11 00:01:21;;;;;;;18.35;3.15;;;;;;;13.59;91.50;96322.84;5079842;28;20108;-75
2022/09/11 00:03:48;;;;;;;17.02;2.70;;;;;;;13.56;91.08;96315.31;5073993;28;20102;-74
2022/09/11 00:06:23;;;;;;;24.90;3.50;;;;;;;13.52;90.85;96309.72;5074097;28;20829;-76
2022/09/11 00:08:58;;;;;;;15.82;2.60;;;;;;;13.51;90.63;96312.78;5072588;28;20098;-75
2022/09/11 00:11:24;;;;;;;12.90;1.95;;;;;;;13.51;90.64;96307.31;5075514;28;20140;-77
2022/09/11 00:13:53;;;;;;;17.58;2.75;;;;;;;13.58;90.81;96313.03;5090897;28;20056;-76
2022/09/11 00:16:22;;;;;;;18.27;2.47;;;;;;;13.47;90.26;96317.34;5080372;28;20040;-76
2022/09/11 00:18:49;;;;;;;13.15;2.35;;;;;;;13.56;90.77;96310.63;5063114;28;20045;-76
2022/09/11 00:21:17;;;;;;;17.55;2.63;;;;;;;13.52;90.73;96311.63;5071406;28;20490;-75
2022/09/11 00:23:44;;;;;;;11.15;1.92;;;;;;;13.61;90.27;96317.81;5073601;28;20040;-79
2022/09/11 00:26:11;;;;;;;11.25;2.28;;;;;;;13.67;89.56;96315.66;5071731;28;20045;-76
2022/09/11 00:28:38;;;;;;;22.88;3.42;;;;;;;13.40;89.31;96311.59;5070714;28;20044;-75
2022/09/11 00:31:08;;;;;;;11.05;1.90;;;;;;;13.47;89.69;96311.88;5070837;28;20082;-76
2022/09/11 00:33:49;;;;;;;29.90;3.42;;;;;;;13.43;89.62;96311.75;5070284;28;20040;-77
2022/09/11 00:36:19;;;;;;;19.48;2.80;;;;;;;13.41;90.04;96313.19;5070959;28;20499;-75
2022/09/11 00:38:48;;;;;;;12.48;1.88;;;;;;;13.42;89.83;96321.09;5069545;28;20052;-76
2022/09/11 00:41:17;;;;;;;12.57;2.10;;;;;;;13.53;89.66;96305.06;5070750;28;20045;-78
2022/09/11 00:43:54;;;;;;;26.77;3.70;;;;;;;13.50;89.40;96316.66;5070101;28;20094;-75
2022/09/11 00:46:24;;;;;;;16.38;2.45;;;;;;;13.65;88.85;96312.47;5054546;28;20042;-75
2022/09/11 00:48:53;;;;;;;15.65;2.05;;;;;;;13.68;88.51;96306.34;5071840;28;20048;-75
2022/09/11 00:51:23;;;;;;;39.15;5.05;;;;;;;13.65;87.74;96310.53;5069991;28;20052;-75
2022/09/11 00:53:51;;;;;;;19.05;2.50;;;;;;;13.61;88.47;96314.28;5070589;28;20055;-75
2022/09/11 00:56:18;;;;;;;11.23;2.10;;;;;;;13.57;87.74;96308.69;5070583;28;20044;-75
2022/09/11 00:58:48;;;;;;;14.70;2.15;;;;;;;13.63;87.84;96310.09;5069964;28;20041;-75
2022/09/11 01:01:15;;;;;;;22.40;2.88;;;;;;;13.77;87.21;96307.81;5068797;28;20036;-76
2022/09/11 01:03:43;;;;;;;13.32;2.10;;;;;;;13.62;87.80;96305.75;5070629;28;20131;-75
2022/09/11 01:06:11;;;;;;;19.02;2.85;;;;;;;13.70;87.34;96304.84;5069767;28;20048;-76
2022/09/11 01:08:39;;;;;;;16.60;2.40;;;;;;;13.61;87.87;96300.63;5051399;28;20045;-75
2022/09/11 01:11:20;;;;;;;17.25;2.65;;;;;;;13.62;87.63;96303.00;5050784;28;20128;-75
2022/09/11 01:13:55;;;;;;;9.70;1.80;;;;;;;13.68;87.20;96301.66;5069743;28;20041;-76
2022/09/11 01:16:28;;;;;;;27.23;3.53;;;;;;;13.57;87.79;96295.00;5069797;28;20051;-77
2022/09/11 01:19:01;;;;;;;10.23;1.80;;;;;;;13.70;87.22;96304.84;5069444;28;20072;-75
2022/09/11 01:21:44;;;;;;;15.00;2.20;;;;;;;13.61;87.08;96295.94;5070021;28;20113;-76
2022/09/11 01:24:19;;;;;;;18.17;2.33;;;;;;;13.50;87.84;96297.50;5068406;28;20418;-77
2022/09/11 01:27:00;;;;;;;13.43;2.05;;;;;;;13.62;87.99;96297.53;5069667;28;20063;-75
2022/09/11 01:29:33;;;;;;;15.40;2.22;;;;;;;13.56;87.88;96298.88;5070140;28;20093;-78
2022/09/11 01:32:08;;;;;;;14.85;2.25;;;;;;;13.68;87.16;96290.72;5069511;28;20041;-76
2022/09/11 01:34:41;;;;;;;12.00;1.85;;;;;;;13.69;87.15;96297.78;5069821;28;20044;-80
2022/09/11 01:37:13;;;;;;;21.58;2.92;;;;;;;13.68;87.05;96298.94;5069345;28;20045;-76
2022/09/11 01:39:45;;;;;;;11.87;2.10;;;;;;;13.58;87.34;96289.22;5070750;28;20048;-75
2022/09/11 01:42:21;;;;;;;14.23;2.38;;;;;;;13.66;86.83;96292.97;5068535;28;20040;-75
2022/09/11 01:44:52;;;;;;;15.80;2.50;;;;;;;13.52;86.79;96297.97;5069764;28;20052;-76
2022/09/11 01:47:20;;;;;;;20.70;3.17;;;;;;;13.52;88.10;96292.50;5069537;28;20048;-79
2022/09/11 01:49:50;;;;;;;15.50;2.50;;;;;;;13.50;87.45;96289.31;5069464;28;20048;-77
2022/09/11 01:52:20;;;;;;;10.38;1.80;;;;;;;13.51;87.92;96285.44;5068125;28;20076;-76
2022/09/11 01:54:51;;;;;;;14.68;2.33;;;;;;;13.60;87.46;96283.41;5069819;28;20056;-76
2022/09/11 01:57:24;;;;;;;12.10;2.28;;;;;;;13.49;87.19;96293.19;5069323;28;20048;-75
2022/09/11 01:59:57;;;;;;;11.52;1.95;;;;;;;13.47;87.85;96298.19;5069904;28;20044;-77
2022/09/11 02:02:28;;;;;;;16.88;2.70;;;;;;;13.49;88.28;96290.44;5067508;28;20055;-78
2022/09/11 02:05:02;;;;;;;14.07;2.40;;;;;;;13.32;88.61;96288.69;5069498;28;20053;-76
2022/09/11 02:07:34;;;;;;;20.55;2.97;;;;;;;13.37;88.53;96287.69;5068889;28;20145;-76
2022/09/11 02:10:08;;;;;;;16.92;2.38;;;;;;;13.41;88.75;96285.84;5070206;28;20044;-75
2022/09/11 02:12:41;;;;;;;22.08;3.20;;;;;;;13.39;88.88;96286.19;5068818;28;20048;-76
2022/09/11 02:15:12;;;;;;;;;;;;;;;13.41;88.49;96292.13;5070133;28;20055;-76
2022/09/11 02:17:47;;;;;;;17.05;2.65;;;;;;;13.43;87.98;96275.38;5069481;28;20338;-77
2022/09/11 02:20:14;;;;;;;20.45;2.92;;;;;;;13.42;88.36;96280.06;5068656;28;20473;-78
2022/09/11 02:22:41;;;;;;;24.30;3.47;;;;;;;13.37;87.88;96280.28;5068413;28;20119;-78
2022/09/11 02:25:08;;;;;;;20.60;2.90;;;;;;;13.56;87.92;96274.25;5069140;28;20047;-76
2022/09/11 02:27:35;;;;;;;9.13;1.83;;;;;;;13.39;88.27;96277.19;5069402;28;20567;-74
2022/09/11 02:30:03;;;;;;;21.92;3.13;;;;;;;13.30;89.77;96274.53;5069282;28;20044;-75
2022/09/11 02:32:33;;;;;;;10.70;2.53;;;;;;;13.36;90.07;96283.31;5069616;28;20120;-76
2022/09/11 02:35:00;;;;;;;12.18;2.22;;;;;;;13.37;90.30;96276.75;5068776;28;20131;-76
2022/09/11 02:37:39;;;;;;;15.70;2.47;;;;;;;13.38;89.86;96270.13;5067547;28;20064;-75
2022/09/11 02:40:30;;;;;;;11.43;1.92;;;;;;;13.42;90.29;96271.06;5087144;28;20043;-77
2022/09/11 02:43:16;;;;;;;19.05;2.83;;;;;;;13.37;89.70;96274.81;5081551;28;20060;-77
2022/09/11 02:45:54;;;;;;;17.15;2.67;;;;;;;13.13;91.00;96270.00;5063929;28;20040;-78
2022/09/11 02:48:44;;;;;;;14.50;2.42;;;;;;;13.18;91.65;96267.06;5075605;28;20094;-77
2022/09/11 02:51:21;;;;;;;21.08;3.25;;;;;;;13.27;91.69;96270.56;5068482;28;20699;-78
2022/09/11 02:53:53;;;;;;;12.82;2.33;;;;;;;13.25;92.21;96275.53;5077056;28;20114;-76
2022/09/11 02:56:28;;;;;;;22.98;3.80;;;;;;;13.25;92.12;96267.34;5076332;28;20491;-77
2022/09/11 02:58:58;;;;;;;15.32;2.83;;;;;;;13.20;92.83;96267.53;5063303;28;20711;-77
2022/09/11 03:01:25;;;;;;;18.52;3.13;;;;;;;13.15;93.49;96266.94;5070434;28;20041;-76
2022/09/11 03:03:53;;;;;;;9.07;1.92;;;;;;;13.21;94.18;96277.38;5073864;28;20048;-77
2022/09/11 03:06:22;;;;;;;17.20;2.97;;;;;;;13.02;94.53;96271.56;5071018;28;20048;-79
2022/09/11 03:08:49;;;;;;;13.85;2.20;;;;;;;13.25;93.32;96275.53;5082543;28;20048;-78
2022/09/11 03:11:16;;;;;;;13.88;2.58;;;;;;;13.23;93.15;96271.56;5067768;28;20056;-77
2022/09/11 03:13:44;;;;;;;25.42;3.80;;;;;;;13.36;92.45;96269.66;5065515;28;20051;-76
2022/09/11 03:16:11;;;;;;;15.15;2.55;;;;;;;13.17;92.66;96270.94;5070103;28;20530;-78
2022/09/11 03:18:37;;;;;;;15.27;2.72;;;;;;;13.19;92.92;96263.19;5068764;28;20068;-77
2022/09/11 03:21:05;;;;;;;16.70;2.83;;;;;;;13.19;93.38;96270.59;5068581;28;20041;-78
2022/09/11 03:23:32;;;;;;;15.60;2.88;;;;;;;13.24;93.26;96265.75;5089285;28;20052;-77
2022/09/11 03:25:59;;;;;;;18.15;2.75;;;;;;;13.35;92.89;96266.13;5078750;28;20056;-77
2022/09/11 03:28:26;;;;;;;14.15;2.55;;;;;;;13.38;91.97;96264.66;5075357;28;20091;-77
2022/09/11 03:30:52;;;;;;;13.77;2.40;;;;;;;13.18;92.28;96264.34;5075677;28;20044;-79
2022/09/11 03:33:19;;;;;;;16.00;3.05;;;;;;;13.09;93.38;96262.81;5069306;28;20047;-77
2022/09/11 03:35:46;;;;;;;23.23;3.10;;;;;;;13.12;93.29;96256.69;5069960;28;20495;-76
2022/09/11 03:38:14;;;;;;;11.95;2.47;;;;;;;13.18;93.12;96261.59;5068654;28;20068;-78
2022/09/11 03:40:42;;;;;;;9.15;1.90;;;;;;;13.18;92.79;96264.34;5068103;28;20073;-77
2022/09/11 03:43:11;;;;;;;16.15;2.63;;;;;;;13.09;92.86;96252.69;5070624;28;20048;-78
2022/09/11 03:45:37;;;;;;;15.20;2.65;;;;;;;13.23;92.31;96263.38;5084011;28;20575;-78
2022/09/11 03:48:05;;;;;;;16.80;2.60;;;;;;;13.24;91.99;96260.28;5082902;28;20055;-79
2022/09/11 03:50:32;;;;;;;20.05;2.80;;;;;;;13.15;92.74;96259.53;5080408;28;20075;-77
2022/09/11 03:52:58;;;;;;;13.95;2.33;;;;;;;13.21;93.02;96266.44;5088105;28;20043;-78
2022/09/11 03:55:26;;;;;;;12.90;2.10;;;;;;;13.27;92.50;96265.09;5086185;28;20051;-77
2022/09/11 03:57:53;;;;;;;9.18;1.90;;;;;;;13.35;92.17;96266.13;5076746;28;20048;-77
2022/09/11 04:00:19;;;;;;;14.65;2.45;;;;;;;13.34;91.76;96263.72;5072147;28;20053;-77
2022/09/11 04:02:46;;;;;;;11.20;1.90;;;;;;;13.19;92.12;96257.72;5086808;28;20044;-78
2022/09/11 04:05:13;;;;;;;32.40;4.63;;;;;;;13.19;91.64;96254.19;5073932;28;20071;-78
2022/09/11 04:07:40;;;;;;;14.90;2.38;;;;;;;13.27;91.61;96265.09;5077982;28;20124;-77
2022/09/11 04:10:07;;;;;;;12.70;2.40;;;;;;;13.17;91.90;96259.22;5071026;28;20123;-77
2022/09/11 04:12:35;;;;;;;16.42;2.78;;;;;;;13.17;91.81;96260.00;5071432;28;20049;-80
2022/09/11 04:15:02;;;;;;;11.90;2.33;;;;;;;13.36;91.54;96264.19;5068550;28;20498;-77
2022/09/11 04:17:29;;;;;;;22.95;3.33;;;;;;;13.21;92.02;96263.72;5090264;28;20117;-77
2022/09/11 04:19:56;;;;;;;11.88;2.15;;;;;;;13.16;92.42;96263.88;5075779;28;20048;-79
2022/09/11 04:22:23;;;;;;;12.43;2.13;;;;;;;13.28;91.94;96257.69;5075042;28;20051;-79
2022/09/11 04:24:49;;;;;;;14.25;2.50;;;;;;;13.38;91.70;96253.72;5085382;28;20048;-76
2022/09/11 04:27:16;;;;;;;11.85;2.35;;;;;;;13.27;92.57;96256.88;5070456;28;20052;-77
2022/09/11 04:29:45;;;;;;;10.82;2.10;;;;;;;13.32;92.05;96253.16;5072199;28;20044;-78
2022/09/11 04:32:12;;;;;;;13.80;2.63;;;;;;;13.42;91.54;96254.66;5070867;28;20120;-79
2022/09/11 04:34:38;;;;;;;13.10;2.33;;;;;;;13.42;91.61;96260.13;5071356;28;20052;-77
2022/09/11 04:37:04;;;;;;;14.45;2.50;;;;;;;13.35;91.64;96262.59;5070395;28;20074;-76
2022/09/11 04:39:31;;;;;;;20.20;3.40;;;;;;;13.31;91.71;96257.00;5071053;28;20052;-77
2022/09/11 04:41:57;;;;;;;11.93;2.60;;;;;;;13.11;94.09;96253.16;5071225;28;20048;-78
2022/09/11 04:44:25;;;;;;;14.35;2.40;;;;;;;13.07;95.11;96252.22;5070689;28;20052;-77
2022/09/11 04:46:52;;;;;;;20.77;3.00;;;;;;;13.21;95.64;96255.50;5078046;28;20048;-76
2022/09/11 04:49:19;;;;;;;22.33;3.33;;;;;;;13.21;95.45;96258.25;5090946;28;20051;-77
2022/09/11 04:51:46;;;;;;;15.18;2.58;;;;;;;13.18;95.47;96256.13;5081322;28;20051;-77
2022/09/11 04:54:14;;;;;;;15.18;3.28;;;;;;;13.04;96.30;96261.09;5081138;28;20048;-76
2022/09/11 04:56:40;;;;;;;15.93;2.50;;;;;;;13.00;96.79;96255.50;5077156;28;20044;-76
2022/09/11 04:59:12;;;;;;;14.68;2.75;;;;;;;13.03;96.45;96256.75;5070415;28;20048;-77
2022/09/11 05:01:39;;;;;;;17.10;2.65;;;;;;;12.99;96.47;96264.81;5071248;28;20052;-77
2022/09/11 05:04:07;;;;;;;11.60;2.35;;;;;;;12.98;95.99;96268.69;5070152;28;20048;-76
2022/09/11 05:06:34;;;;;;;14.30;2.55;;;;;;;13.12;96.26;96268.41;5074698;28;20127;-77
2022/09/11 05:09:03;;;;;;;11.10;2.42;;;;;;;13.03;96.65;96270.44;5074877;28;20122;-75
2022/09/11 05:11:30;;;;;;;19.25;3.10;;;;;;;13.06;95.79;96258.84;5068810;28;20137;-75
2022/09/11 05:13:58;;;;;;;14.32;2.72;;;;;;;13.05;95.66;96262.72;5071219;28;20444;-76
2022/09/11 05:16:27;;;;;;;13.43;2.30;;;;;;;13.12;95.80;96259.44;5070550;28;20068;-76
2022/09/11 05:18:55;;;;;;;23.67;3.53;;;;;;;13.01;95.57;96268.03;5073952;28;20043;-76
2022/09/11 05:21:24;;;;;;;12.57;2.42;;;;;;;13.07;96.51;96254.97;5072180;28;20052;-79
2022/09/11 05:23:52;;;;;;;15.32;2.55;;;;;;;13.03;95.62;96254.03;5087265;28;20055;-77
2022/09/11 05:26:20;;;;;;;20.40;3.10;;;;;;;13.06;95.01;96256.09;5086870;28;20442;-76
2022/09/11 05:28:47;;;;;;;23.95;3.45;;;;;;;13.00;95.29;96265.66;5071558;28;20052;-79
2022/09/11 05:31:15;;;;;;;20.45;3.15;;;;;;;13.06;95.51;96253.38;5075319;28;20051;-77
2022/09/11 05:33:42;;;;;;;23.77;3.20;;;;;;;13.02;94.83;96252.44;5070131;28;20045;-77
2022/09/11 05:36:10;;;;;;;26.55;3.97;;;;;;;13.09;95.01;96263.63;5065772;28;20072;-77
2022/09/11 05:38:38;;;;;;;16.85;2.92;;;;;;;13.26;93.85;96262.69;5067584;28;20044;-76
2022/09/11 05:41:06;;;;;;;38.28;5.28;;;;;;;13.26;93.32;96263.50;5075009;28;20059;-80
2022/09/11 05:43:33;;;;;;;18.48;2.83;;;;;;;13.25;93.73;96272.81;5088037;28;20044;-77
2022/09/11 05:46:00;;;;;;;36.38;4.90;;;;;;;13.19;93.46;96268.66;5087481;28;20044;-78
2022/09/11 05:48:28;;;;;;;35.42;4.88;;;;;;;13.16;93.44;96266.63;5077541;28;20055;-77
2022/09/11 05:50:58;;;;;;;31.83;4.50;;;;;;;13.30;93.02;96274.53;5069678;28;20135;-80
2022/09/11 05:53:24;;;;;;;25.13;3.53;;;;;;;13.23;93.54;96280.56;5075910;28;20069;-78
2022/09/11 05:55:52;;;;;;;30.08;4.07;;;;;;;13.25;93.46;96289.22;5070775;28;20048;-78
2022/09/11 05:58:19;;;;;;;24.52;3.92;;;;;;;13.22;93.41;96284.44;5066266;28;20059;-79
2022/09/11 06:00:47;;;;;;;25.42;3.85;;;;;;;13.28;93.18;96280.34;5066214;28;20051;-80
2022/09/11 06:03:13;;;;;;;25.25;3.78;;;;;;;13.30;92.66;96282.75;5067290;28;20056;-80
2022/09/11 06:05:40;;;;;;;24.13;3.78;;;;;;;13.27;92.12;96292.44;5067381;28;20055;-80
2022/09/11 06:08:07;;;;;;;21.02;3.13;;;;;;;13.28;92.47;96288.56;5065931;28;20054;-80
2022/09/11 06:10:34;;;;;;;20.08;2.95;;;;;;;13.38;92.75;96290.06;5066374;28;20040;-76
2022/09/11 06:13:02;;;;;;;23.75;3.47;;;;;;;13.30;92.71;96297.22;5073339;28;20566;-77
2022/09/11 06:15:31;;;;;;;25.90;3.67;;;;;;;13.37;93.32;96293.94;5065657;28;20029;-77
2022/09/11 06:17:58;;;;;;;22.80;3.47;;;;;;;13.50;93.07;96301.03;5064702;28;20048;-79
2022/09/11 06:20:24;;;;;;;23.38;3.40;;;;;;;13.38;93.64;96297.47;5066154;28;20052;-78
2022/09/11 06:22:51;;;;;;;16.27;3.10;;;;;;;13.38;94.60;96298.28;5065949;28;20053;-75
2022/09/11 06:25:17;;;;;;;23.33;3.92;;;;;;;13.36;95.17;96307.94;5066459;28;20056;-78
2022/09/11 06:27:44;;;;;;;28.17;3.53;;;;;;;13.34;95.16;96297.34;5066234;28;20041;-76
2022/09/11 06:30:13;;;;;;;21.90;3.67;;;;;;;13.12;95.81;96303.97;5066774;28;20063;-76
2022/09/11 06:32:40;;;;;;;31.85;4.63;;;;;;;13.07;97.70;96309.63;5066546;28;20136;-77
2022/09/11 06:35:07;;;;;;;23.10;3.70;;;;;;;13.21;96.87;96312.94;5066433;28;20102;-77
2022/09/11 06:37:34;;;;;;;48.30;6.60;;;;;;;13.30;97.17;96313.63;5064847;28;20052;-76
2022/09/11 06:40:01;;;;;;;16.58;3.10;;;;;;;13.12;97.74;96312.16;5066385;28;20132;-76
2022/09/11 06:42:28;;;;;;;21.35;3.53;;;;;;;13.11;98.68;96315.25;5066378;28;20052;-76
2022/09/11 06:44:54;;;;;;;30.58;4.72;;;;;;;13.13;98.64;96313.75;5065994;28;20051;-79
2022/09/11 06:47:22;;;;;;;21.00;3.67;;;;;;;13.07;99.39;96312.38;5066475;28;20062;-76
2022/09/11 06:49:49;;;;;;;25.77;4.40;;;;;;;12.99;100.00;96313.22;5063245;28;20454;-76
2022/09/11 06:52:15;;;;;;;25.77;4.05;;;;;;;12.92;100.00;96323.91;5052137;28;20049;-76
2022/09/11 06:54:41;;;;;;;26.83;4.68;;;;;;;12.94;100.00;96316.16;5066285;28;20057;-77
2022/09/11 06:57:08;;;;;;;20.55;3.97;;;;;;;12.86;100.00;96314.31;5065624;28;20056;-75
2022/09/11 06:59:34;;;;;;;20.92;4.32;;;;;;;12.84;100.00;96320.09;5066542;28;20052;-76
2022/09/11 07:02:01;;;;;;;17.17;3.67;;;;;;;12.83;100.00;96320.44;5066934;28;20044;-75
2022/09/11 07:04:29;;;;;;;21.85;4.00;;;;;;;12.85;100.00;96324.44;5064762;28;20047;-76
2022/09/11 07:06:56;;;;;;;21.20;4.22;;;;;;;12.86;100.00;96326.03;5066470;28;20170;-75
2022/09/11 07:09:22;;;;;;;14.38;3.30;;;;;;;12.84;100.00;96322.03;5064626;28;20140;-76
2022/09/11 07:11:49;;;;;;;19.98;4.30;;;;;;;12.84;100.00;96324.75;5066671;28;20127;-78
2022/09/11 07:14:20;;;;;;;22.00;4.53;;;;;;;12.90;100.00;96326.19;5065583;28;20048;-79
2022/09/11 07:16:48;;;;;;;18.88;3.95;;;;;;;12.96;100.00;96330.31;5066259;28;20052;-80
2022/09/11 07:19:17;;;;;;;21.58;4.10;;;;;;;12.78;100.00;96324.97;5069345;28;20049;-80
2022/09/11 07:21:45;;;;;;;32.00;5.68;;;;;;;12.85;100.00;96331.84;5068657;28;20042;-76
2022/09/11 07:24:11;;;;;;;32.80;6.30;;;;;;;12.88;100.00;96336.63;5066551;28;20098;-77
2022/09/11 07:26:38;;;;;;;48.55;7.45;;;;;;;12.98;100.00;96333.50;5067642;28;20142;-76
2022/09/11 07:29:05;;;;;;;21.55;4.47;;;;;;;12.94;100.00;96333.34;5067487;28;20056;-76
2022/09/11 07:31:33;;;;;;;24.33;4.63;;;;;;;13.11;100.00;96340.66;5070406;28;20052;-77
2022/09/11 07:34:01;;;;;;;22.00;4.93;;;;;;;12.97;100.00;96340.09;5070118;28;20110;-76
2022/09/11 07:36:29;;;;;;;22.73;5.00;;;;;;;12.99;100.00;96329.63;5070201;28;20123;-76
2022/09/11 07:38:58;;;;;;;15.82;3.90;;;;;;;13.14;100.00;96342.69;5075315;28;20075;-76
2022/09/11 07:41:26;;;;;;;20.80;4.90;;;;;;;13.23;100.00;96346.19;5069888;28;20098;-77
2022/09/11 07:43:55;;;;;;;28.33;6.55;;;;;;;13.21;100.00;96351.22;5070324;28;20072;-78
2022/09/11 07:46:22;;;;;;;16.75;4.07;;;;;;;13.29;100.00;96357.72;5069279;28;20048;-76
2022/09/11 07:48:49;;;;;;;23.55;4.85;;;;;;;13.30;100.00;96359.31;5068012;28;20550;-78
2022/09/11 07:51:17;;;;;;;21.67;5.22;;;;;;;13.34;100.00;96359.44;5069508;28;20517;-75
2022/09/11 07:53:46;;;;;;;20.88;5.28;;;;;;;13.32;100.00;96362.53;5085319;28;20648;-77
2022/09/11 07:56:17;;;;;;;25.50;5.97;;;;;;;13.31;100.00;96364.47;5089743;28;20048;-77
2022/09/11 07:58:44;;;;;;;24.80;6.13;;;;;;;13.24;100.00;96364.19;5083244;28;20044;-76
2022/09/11 08:01:13;;;;;;;25.33;5.82;;;;;;;13.33;100.00;96366.84;5069396;28;20052;-76
2022/09/11 08:03:41;;;;;;;22.42;4.93;;;;;;;13.36;100.00;96370.84;5069660;28;20055;-76
2022/09/11 08:06:09;;;;;;;22.98;5.43;;;;;;;13.46;100.00;96371.22;5069342;28;20653;-77
2022/09/11 08:08:37;;;;;;;34.88;7.03;;;;;;;13.49;100.00;96380.72;5068202;28;20049;-77
2022/09/11 08:11:05;;;;;;;26.73;6.25;;;;;;;13.49;100.00;96378.78;5067966;28;20136;-78
2022/09/11 08:13:33;;;;;;;23.58;5.47;;;;;;;13.40;100.00;96374.50;5069350;28;20110;-76
2022/09/11 08:16:00;;;;;;;26.77;5.78;;;;;;;13.48;100.00;96388.13;5068246;28;20550;-76
2022/09/11 08:18:26;;;;;;;25.45;5.75;;;;;;;13.53;100.00;96393.41;5071261;28;20040;-76
2022/09/11 08:20:54;;;;;;;25.35;6.32;;;;;;;13.48;100.00;96390.06;5072565;28;20535;-76
2022/09/11 08:23:21;;;;;;;22.00;5.43;;;;;;;13.48;100.00;96392.81;5080487;28;20143;-76
2022/09/11 08:25:48;;;;;;;26.20;6.28;;;;;;;13.43;100.00;96401.22;5089167;28;20075;-77
2022/09/11 08:28:14;;;;;;;29.00;7.05;;;;;;;13.39;100.00;96403.81;5085518;28;20040;-75
2022/09/11 08:30:42;;;;;;;32.45;7.18;;;;;;;13.47;100.00;96402.16;5082633;28;20059;-76
2022/09/11 08:33:09;;;;;;;28.60;6.93;;;;;;;13.57;100.00;96409.91;5088585;28;20513;-76
2022/09/11 08:35:36;;;;;;;23.58;6.57;;;;;;;13.63;100.00;96413.28;5088947;28;20071;-76
2022/09/11 08:38:03;;;;;;;24.48;6.40;;;;;;;13.61;100.00;96412.78;5088659;28;20097;-75
2022/09/11 08:40:30;;;;;;;19.55;5.75;;;;;;;13.74;100.00;96407.03;5088867;28;20579;-76
2022/09/11 08:43:01;;;;;;;21.80;6.25;;;;;;;13.76;100.00;96407.50;5088934;28;20075;-76
2022/09/11 08:45:33;;;;;;;27.73;7.15;;;;;;;13.85;100.00;96404.69;5088929;28;20662;-76
2022/09/11 08:48:01;;;;;;;21.77;6.60;;;;;;;13.81;100.00;96407.28;5088880;28;20055;-76
2022/09/11 08:50:33;;;;;;;23.48;6.07;;;;;;;13.99;100.00;96407.09;5088746;28;20043;-76
2022/09/11 08:53:02;;;;;;;19.13;5.75;;;;;;;14.02;100.00;96409.16;5078696;28;20058;-76
2022/09/11 08:55:34;;;;;;;18.25;5.75;;;;;;;14.09;99.05;96410.22;5072859;28;20067;-76
2022/09/11 08:58:13;;;;;;;27.20;6.75;;;;;;;14.16;99.06;96411.59;5107895;28;20056;-77
2022/09/11 09:00:44;;;;;;;23.90;6.10;;;;;;;14.17;99.48;96411.25;5085929;28;20040;-78
2022/09/11 09:03:38;;;;;;;19.98;6.05;;;;;;;14.06;99.05;96415.56;5088403;28;20064;-75
2022/09/11 09:06:15;;;;;;;;;;;;;;;14.12;100.00;96419.69;5089009;28;20518;-76
2022/09/11 09:08:50;;;;;;;26.48;6.50;;;;;;;14.19;99.45;96419.91;5088763;28;19924;-76
2022/09/11 09:11:27;;;;;;;15.15;5.43;;;;;;;14.21;99.68;96427.81;5088296;28;20055;-77
2022/09/11 09:14:07;;;;;;;30.92;7.07;;;;;;;14.19;98.81;96430.06;5087788;28;20058;-79
2022/09/11 09:16:47;;;;;;;17.88;5.93;;;;;;;14.12;98.70;96422.44;5088468;28;20054;-75
2022/09/11 09:19:20;;;;;;;22.45;6.70;;;;;;;14.11;100.00;96423.56;5087781;28;20152;-78
2022/09/11 09:21:57;;;;;;;29.00;7.85;;;;;;;14.00;100.00;96433.34;5088142;28;20051;-75
2022/09/11 09:24:26;;;;;;;21.83;6.85;;;;;;;13.90;100.00;96444.72;5084527;28;20435;-78
2022/09/11 09:26:55;;;;;;;23.13;6.93;;;;;;;14.00;100.00;96444.31;5093796;28;20413;-77
2022/09/11 09:29:24;;;;;;;22.45;6.50;;;;;;;13.88;100.00;96449.72;5108199;28;20039;-77
2022/09/11 09:31:53;;;;;;;22.65;6.90;;;;;;;13.90;100.00;96450.19;5108753;28;20040;-75
2022/09/11 09:34:26;;;;;;;23.20;6.95;;;;;;;13.80;100.00;96454.94;5107868;28;20066;-77
2022/09/11 09:36:59;;;;;;;25.83;7.38;;;;;;;13.86;100.00;96454.75;5108732;28;20144;-76
2022/09/11 09:39:25;;;;;;;19.65;6.15;;;;;;;13.90;100.00;96459.22;5107051;28;20047;-77
2022/09/11 09:42:16;;;;;;;28.90;7.95;;;;;;;13.80;100.00;96460.44;5108318;28;20047;-77
2022/09/11 09:44:57;;;;;;;26.50;7.60;;;;;;;13.90;100.00;96452.94;5107942;28;20062;-77
2022/09/11 09:47:25;;;;;;;25.73;7.40;;;;;;;13.90;100.00;96458.41;5107960;28;20046;-78
2022/09/11 09:49:55;;;;;;;22.70;7.05;;;;;;;13.86;100.00;96460.22;5108228;28;20039;-76
2022/09/11 09:52:24;;;;;;;22.65;7.60;;;;;;;13.84;100.00;96453.16;5102049;27;20090;-76
2022/09/11 09:54:55;;;;;;;26.55;7.88;;;;;;;14.01;100.00;96462.34;5087883;28;20136;-76
2022/09/11 09:57:26;;;;;;;28.85;8.20;;;;;;;14.06;100.00;96471.13;5105591;28;20104;-78
2022/09/11 09:59:57;;;;;;;23.70;7.40;;;;;;;14.20;100.00;96465.38;5107986;28;20051;-77
2022/09/11 10:02:38;;;;;;;22.10;7.70;;;;;;;14.27;100.00;96465.59;5107614;28;20051;-79
2022/09/11 10:05:16;;;;;;;22.88;7.53;;;;;;;14.29;100.00;96463.31;5107757;28;20057;-77
2022/09/11 10:07:47;;;;;;;28.42;8.23;;;;;;;14.29;100.00;96462.50;5106590;28;20520;-76
2022/09/11 10:10:22;;;;;;;38.88;9.35;;;;;;;14.27;100.00;96468.34;5106232;28;20070;-77
2022/09/11 10:12:49;;;;;;;26.77;7.82;;;;;;;14.22;100.00;96467.75;5107651;28;20146;-75
2022/09/11 10:15:21;;;;;;;31.52;8.75;;;;;;;14.15;100.00;96465.56;5106391;28;20062;-75
2022/09/11 10:17:48;;;;;;;33.53;8.85;;;;;;;14.07;100.00;96466.44;5107447;28;20052;-78
2022/09/11 10:20:25;;;;;;;28.20;8.43;;;;;;;14.15;100.00;96462.84;5106158;28;20498;-76
2022/09/11 10:22:53;;;;;;;26.88;8.07;;;;;;;14.13;100.00;96469.78;5097733;28;20054;-76
2022/09/11 10:25:22;;;;;;;29.27;8.80;;;;;;;14.26;100.00;96468.69;5086839;28;20055;-76
2022/09/11 10:28:01;;;;;;;35.55;9.70;;;;;;;14.26;100.00;96469.47;5106977;28;20051;-74
2022/09/11 10:30:31;;;;;;;22.05;8.05;;;;;;;14.29;100.00;96460.56;5106381;28;20073;-76
2022/09/11 10:32:59;;;;;;;24.48;8.32;;;;;;;14.39;100.00;96474.97;5106953;28;20044;-77
2022/09/11 10:35:29;;;;;;;25.17;7.90;;;;;;;14.33;100.00;96466.97;5106035;28;20530;-77
2022/09/11 10:38:13;;;;;;;23.95;7.90;;;;;;;14.51;100.00;96472.28;5107255;28;20048;-76
2022/09/11 10:40:46;;;;;;;31.02;8.38;;;;;;;14.61;100.00;96469.09;5106691;28;20533;-77
2022/09/11 10:43:24;;;;;;;26.35;7.93;;;;;;;14.59;100.00;96471.38;5106854;28;20059;-76
2022/09/11 10:46:02;;;;;;;26.80;7.53;;;;;;;14.74;100.00;96464.44;5107127;28;20051;-77
2022/09/11 10:48:28;;;;;;;40.45;8.90;;;;;;;14.76;100.00;96479.41;5106453;28;20070;-77
2022/09/11 10:51:04;;;;;;;22.60;7.40;;;;;;;14.83;100.00;96471.41;5107770;28;20058;-78
2022/09/11 10:53:37;;;;;;;22.92;7.05;;;;;;;14.98;100.00;96477.34;5095882;28;20044;-77
2022/09/11 10:56:05;;;;;;;30.77;17.48;;;;;;;15.05;100.00;96474.84;5092091;28;20709;-78
2022/09/11 10:58:35;;;;;;;61.13;44.47;;;;;;;15.10;100.00;96480.88;5092688;28;20082;-81
2022/09/11 11:01:02;;;;;;;318.23;282.05;;;;;;;15.23;100.00;96472.63;5093052;28;20056;-77
2022/09/11 11:03:29;;;;;;;397.00;353.63;;;;;;;15.34;100.00;96482.78;5093535;28;20048;-78
2022/09/11 11:06:08;;;;;;;42.88;31.10;;;;;;;15.44;98.74;96480.72;5091306;28;20048;-79
2022/09/11 11:08:58;;;;;;;22.20;8.55;;;;;;;15.44;97.95;96488.97;5091232;28;20044;-79
2022/09/11 11:11:39;;;;;;;31.83;17.45;;;;;;;15.40;98.14;96481.44;5092119;28;20048;-79
2022/09/11 11:14:26;;;;;;;25.17;7.15;;;;;;;15.37;96.93;96487.59;5091193;28;20052;-79
2022/09/11 11:16:59;;;;;;;102.07;92.53;;;;;;;15.38;95.03;96491.94;5095338;28;20055;-80
2022/09/11 11:19:41;;;;;;;95.20;84.20;;;;;;;15.51;94.94;96486.44;5095738;28;20047;-79
2022/09/11 11:22:21;;;;;;;50.25;28.20;;;;;;;15.55;94.92;96490.06;5103114;28;20138;-79
2022/09/11 11:25:03;;;;;;;79.88;56.42;;;;;;;15.64;95.49;96488.81;5089968;28;20051;-80
2022/09/11 11:27:54;;;;;;;20.92;8.07;;;;;;;15.75;95.09;96493.84;5108027;27;20058;-83
2022/09/11 11:30:23;;;;;;;15.82;5.82;;;;;;;15.91;90.84;96495.47;5087620;28;20040;-83
2022/09/11 11:33:09;;;;;;;36.13;22.00;;;;;;;16.06;90.48;96499.44;5102094;28;20044;-80
2022/09/11 11:35:44;;;;;;;45.47;31.52;;;;;;;16.17;89.04;96497.78;5097118;28;20047;-82